Time;durP1;ratioP1;P1;durP2;ratioP2;P2;SDS_P1;SDS_P2;PMS_P1;PMS_P2;Temp;Humidity;BMP_temperature;BMP_pressure;BME280_temperature;BME280_humidity;BME280_pressure;Samples;Min_cycle;Max_cycle;Signal;HPM_P1;HPM_P2
2022/05/28 00:00:17;;;;;;;8.57;3.20;;;;;;;12.60;50.14;101372.91;684985;28;1306;-78
2022/05/28 00:00:37;;;;;;;11.18;3.35;;;;;;;12.62;50.10;101376.47;686769;28;1168;-78
2022/05/28 00:00:59;;;;;;;10.55;3.28;;;;;;;12.60;50.01;101379.03;685239;28;1252;-78
2022/05/28 00:01:22;;;;;;;10.57;3.28;;;;;;;12.64;49.90;101387.84;687714;28;1348;-79
2022/05/28 00:01:42;;;;;;;10.32;3.00;;;;;;;12.62;50.22;101371.22;687805;28;1187;-78
2022/05/28 00:02:03;;;;;;;10.50;2.87;;;;;;;12.60;50.26;101376.41;682223;28;1310;-78
2022/05/28 00:02:24;;;;;;;9.02;2.95;;;;;;;12.60;50.29;101389.50;686783;28;1187;-78
2022/05/28 00:02:46;;;;;;;8.75;2.88;;;;;;;12.63;50.33;101391.31;693373;28;1286;-78
2022/05/28 00:03:06;;;;;;;10.85;3.30;;;;;;;12.61;50.40;101391.25;693185;28;1368;-78
2022/05/28 00:03:28;;;;;;;11.35;3.20;;;;;;;12.66;50.23;101387.91;690304;28;1908;-78
2022/05/28 00:03:51;;;;;;;10.23;3.20;;;;;;;12.58;50.48;101385.94;685352;28;1149;-77
2022/05/28 00:04:13;;;;;;;9.48;2.95;;;;;;;12.59;50.16;101372.00;687001;28;1241;-77
2022/05/28 00:04:33;;;;;;;9.00;3.30;;;;;;;12.58;50.45;101372.84;689065;28;1156;-77
2022/05/28 00:04:54;;;;;;;7.75;3.00;;;;;;;12.63;50.45;101387.78;685238;28;1271;-76
2022/05/28 00:05:15;;;;;;;7.03;3.03;;;;;;;12.58;50.51;101380.72;687006;28;1371;-76
2022/05/28 00:05:35;;;;;;;7.30;2.90;;;;;;;12.57;50.59;101378.94;686794;28;1358;-77
2022/05/28 00:05:56;;;;;;;8.17;3.10;;;;;;;12.59;50.49;101384.19;689155;28;1493;-76
2022/05/28 00:06:20;;;;;;;8.68;3.50;;;;;;;12.58;50.47;101388.56;690353;28;1324;-76
2022/05/28 00:06:41;;;;;;;8.73;3.35;;;;;;;12.60;50.56;101371.16;690967;28;1337;-78
2022/05/28 00:07:04;;;;;;;10.90;3.70;;;;;;;12.59;50.30;101387.72;687741;28;1439;-78
2022/05/28 00:07:24;;;;;;;11.20;3.80;;;;;;;12.58;50.54;101383.31;690632;28;1068;-78
2022/05/28 00:07:45;;;;;;;9.27;3.70;;;;;;;12.56;50.76;101374.56;693268;28;1312;-78
2022/05/28 00:08:06;;;;;;;8.60;3.17;;;;;;;12.48;50.44;101358.59;690396;28;1373;-79
2022/05/28 00:08:28;;;;;;;8.40;3.00;;;;;;;12.56;50.51;101379.78;687790;28;1465;-78
2022/05/28 00:08:48;;;;;;;9.35;3.20;;;;;;;12.57;50.69;101378.94;693198;28;1380;-77
2022/05/28 00:09:09;;;;;;;6.73;3.17;;;;;;;12.48;50.67;101376.06;690429;28;1310;-79
2022/05/28 00:09:30;;;;;;;8.40;3.40;;;;;;;12.56;50.69;101371.03;689978;28;1397;-78
2022/05/28 00:10:04;;;;;;;7.90;3.30;;;;;;;12.60;50.86;101383.38;690393;28;1262;-78
2022/05/28 00:10:25;;;;;;;6.07;3.13;;;;;;;12.53;50.69;101373.56;687546;28;1303;-78
2022/05/28 00:10:46;;;;;;;5.95;2.97;;;;;;;12.56;50.56;101371.03;686515;28;1252;-78
2022/05/28 00:11:13;;;;;;;9.82;3.03;;;;;;;12.54;50.92;101373.59;690417;28;1308;-78
2022/05/28 00:11:38;;;;;;;12.65;3.10;;;;;;;12.57;50.82;101378.94;690105;28;1579;-78
2022/05/28 00:11:58;;;;;;;13.32;3.13;;;;;;;12.58;50.73;101380.72;687754;28;1962;-78
2022/05/28 00:12:23;;;;;;;12.77;3.10;;;;;;;12.57;50.77;101373.72;684378;28;1526;-78
2022/05/28 00:12:45;;;;;;;11.25;3.10;;;;;;;12.53;50.68;101376.19;684959;28;1436;-78
2022/05/28 00:13:06;;;;;;;10.02;3.28;;;;;;;12.53;50.70;101371.81;687338;28;1255;-78
2022/05/28 00:13:27;;;;;;;10.07;3.22;;;;;;;12.60;50.77;101383.38;685210;28;1449;-79
2022/05/28 00:13:49;;;;;;;10.47;3.40;;;;;;;12.57;50.63;101384.19;684118;28;1181;-78
2022/05/28 00:14:10;;;;;;;11.43;3.33;;;;;;;12.48;50.85;101368.19;687590;28;1239;-78
2022/05/28 00:14:30;;;;;;;9.02;3.30;;;;;;;12.54;51.05;101378.84;690447;28;1333;-78
2022/05/28 00:14:51;;;;;;;8.10;3.25;;;;;;;12.54;50.69;101373.59;687462;28;1263;-77
2022/05/28 00:15:12;;;;;;;6.87;3.40;;;;;;;12.52;50.81;101375.28;691873;28;1618;-78
2022/05/28 00:15:33;;;;;;;6.72;3.50;;;;;;;12.56;50.50;101381.50;690793;28;1230;-79
2022/05/28 00:15:54;;;;;;;6.22;3.55;;;;;;;12.64;50.43;101384.38;690346;28;1227;-78
2022/05/28 00:16:16;;;;;;;6.88;3.28;;;;;;;12.55;50.59;101370.13;687376;28;1430;-78
2022/05/28 00:16:37;;;;;;;7.10;3.20;;;;;;;12.57;50.72;101384.19;689642;28;1341;-79
2022/05/28 00:16:58;;;;;;;9.02;3.20;;;;;;;12.52;50.90;101370.06;685384;28;1514;-78
2022/05/28 00:17:18;;;;;;;10.80;3.40;;;;;;;12.46;50.68;101362.91;689934;28;1180;-79
2022/05/28 00:17:39;;;;;;;10.07;3.30;;;;;;;12.51;50.98;101370.91;690105;28;1326;-78
2022/05/28 00:18:00;;;;;;;8.00;2.92;;;;;;;12.53;51.09;101371.81;689858;28;1309;-78
2022/05/28 00:18:21;;;;;;;6.43;2.80;;;;;;;12.52;50.62;101363.94;689556;28;1368;-78
2022/05/28 00:18:42;;;;;;;6.65;2.70;;;;;;;12.48;50.99;101368.19;687871;28;1339;-79
2022/05/28 00:19:05;;;;;;;6.80;2.83;;;;;;;12.56;50.83;101377.16;687570;28;1358;-78
2022/05/28 00:19:25;;;;;;;10.73;3.05;;;;;;;12.50;50.97;101373.47;685829;28;1160;-78
2022/05/28 00:19:46;;;;;;;11.93;3.27;;;;;;;12.45;51.16;101366.38;684640;28;1211;-79
2022/05/28 00:20:07;;;;;;;12.73;3.30;;;;;;;12.52;51.06;101366.56;687915;28;1267;-78
2022/05/28 00:20:29;;;;;;;11.45;3.33;;;;;;;12.56;51.04;101371.03;688168;28;1385;-78
2022/05/28 00:20:49;;;;;;;10.30;3.50;;;;;;;12.48;51.10;101355.97;683535;28;1363;-78
2022/05/28 00:21:11;;;;;;;10.40;3.40;;;;;;;12.58;51.00;101372.84;685469;28;1580;-78
2022/05/28 00:21:33;;;;;;;9.85;3.13;;;;;;;12.46;51.15;101364.63;687522;28;1082;-78
2022/05/28 00:22:03;;;;;;;13.63;3.10;;;;;;;12.47;50.83;101355.94;690280;28;1273;-78
2022/05/28 00:22:23;;;;;;;10.38;3.10;;;;;;;12.57;50.81;101373.72;690504;28;1674;-78
2022/05/28 00:22:44;;;;;;;9.02;3.40;;;;;;;12.55;50.88;101369.25;688656;28;1170;-78
2022/05/28 00:23:05;;;;;;;10.07;3.50;;;;;;;12.53;50.86;101363.09;690314;28;1357;-78
2022/05/28 00:23:25;;;;;;;10.20;3.30;;;;;;;12.52;50.98;101370.06;689584;28;1906;-78
2022/05/28 00:23:46;;;;;;;8.93;3.10;;;;;;;12.58;50.87;101359.75;690536;28;1263;-78
2022/05/28 00:24:06;;;;;;;7.28;3.00;;;;;;;12.57;50.74;101364.94;688086;28;1481;-78
2022/05/28 00:24:27;;;;;;;6.43;2.90;;;;;;;12.50;50.79;101365.59;688101;28;1390;-78
2022/05/28 00:24:48;;;;;;;7.18;3.03;;;;;;;12.50;50.92;101356.03;690670;28;1143;-79
2022/05/28 00:25:12;;;;;;;8.30;2.97;;;;;;;12.49;51.12;101359.50;686908;28;1393;-78
2022/05/28 00:25:33;;;;;;;9.05;3.00;;;;;;;12.50;51.12;101361.28;687229;28;1247;-78
2022/05/28 00:25:53;;;;;;;9.20;2.92;;;;;;;12.45;50.93;101360.25;684805;28;1200;-79
2022/05/28 00:26:14;;;;;;;9.80;3.00;;;;;;;12.43;51.17;101354.06;687732;28;1141;-78
2022/05/28 00:26:35;;;;;;;9.50;3.00;;;;;;;12.54;51.12;101367.50;688920;28;1259;-78
2022/05/28 00:26:55;;;;;;;7.68;2.92;;;;;;;12.51;51.08;101363.03;687974;28;1238;-78
2022/05/28 00:27:16;;;;;;;8.90;2.90;;;;;;;12.53;50.81;101357.88;690453;28;1222;-79
2022/05/28 00:27:38;;;;;;;9.27;2.83;;;;;;;12.53;51.08;101366.59;690350;28;1399;-78
2022/05/28 00:27:58;;;;;;;10.20;3.05;;;;;;;12.38;50.88;101345.19;690417;28;1812;-78
2022/05/28 00:28:21;;;;;;;8.05;3.00;;;;;;;12.39;51.31;101349.56;690537;28;1072;-78
2022/05/28 00:28:41;;;;;;;8.10;3.10;;;;;;;12.43;51.18;101361.94;690530;28;1547;-78
2022/05/28 00:29:02;;;;;;;8.35;2.97;;;;;;;12.41;51.23;101351.41;688187;28;1266;-78
2022/05/28 00:29:22;;;;;;;9.10;3.00;;;;;;;12.43;51.38;101354.06;690570;28;1413;-78
2022/05/28 00:29:43;;;;;;;6.45;2.72;;;;;;;12.45;51.19;101362.84;692068;28;1217;-78
2022/05/28 00:30:05;;;;;;;6.28;2.60;;;;;;;12.41;51.53;101361.00;688251;28;1267;-78
2022/05/28 00:30:26;;;;;;;9.02;2.42;;;;;;;12.42;51.19;101366.25;688495;28;941;-79
2022/05/28 00:30:49;;;;;;;9.52;2.72;;;;;;;12.43;51.39;101364.53;690033;28;1309;-78
2022/05/28 00:31:11;;;;;;;10.75;3.00;;;;;;;12.44;51.19;101361.09;694597;28;1372;-78
2022/05/28 00:31:31;;;;;;;7.32;3.10;;;;;;;12.54;51.27;101373.59;693257;28;1323;-78
2022/05/28 00:31:53;;;;;;;7.57;3.15;;;;;;;12.44;51.10;101361.09;692176;28;1365;-78
2022/05/28 00:32:13;;;;;;;6.57;2.80;;;;;;;12.44;50.98;101356.75;692953;28;1670;-78
2022/05/28 00:32:34;;;;;;;10.93;3.00;;;;;;;12.38;51.00;101345.19;688509;28;1294;-79
2022/05/28 00:32:55;;;;;;;10.57;3.10;;;;;;;12.40;51.27;101356.63;679851;28;1343;-78
2022/05/28 00:33:16;;;;;;;12.57;3.25;;;;;;;12.47;51.36;101363.78;685066;28;1291;-78
2022/05/28 00:33:37;;;;;;;11.18;3.17;;;;;;;12.42;51.39;101360.16;686550;28;1226;-78
2022/05/28 00:33:58;;;;;;;12.93;3.30;;;;;;;12.41;51.32;101361.88;689178;28;1352;-78
2022/05/28 00:34:18;;;;;;;10.60;3.50;;;;;;;12.43;51.34;101354.06;682371;29;1513;-78
2022/05/28 00:34:40;;;;;;;8.38;3.40;;;;;;;12.46;51.32;101359.38;688877;28;1146;-78
2022/05/28 00:35:16;;;;;;;7.72;3.20;;;;;;;12.38;51.49;101360.91;687179;28;1306;-78
2022/05/28 00:35:36;;;;;;;7.03;2.78;;;;;;;12.41;51.43;101355.78;684678;28;2174;-78
2022/05/28 00:35:58;;;;;;;7.88;3.20;;;;;;;12.42;51.10;101357.53;684984;28;894;-78
2022/05/28 00:36:19;;;;;;;9.15;3.50;;;;;;;12.39;51.10;101358.34;683777;28;1423;-78
2022/05/28 00:36:40;;;;;;;9.40;3.53;;;;;;;12.40;51.23;101354.88;689662;28;1269;-78
2022/05/28 00:37:01;;;;;;;6.50;3.00;;;;;;;12.44;51.16;101355.84;692104;28;2020;-78
2022/05/28 00:37:22;;;;;;;5.90;3.07;;;;;;;12.46;51.31;101362.00;687142;28;1362;-79
2022/05/28 00:37:44;;;;;;;8.15;3.20;;;;;;;12.54;51.29;101375.34;687752;28;1135;-78
2022/05/28 00:38:04;;;;;;;10.38;3.20;;;;;;;12.45;51.41;101347.16;687707;28;1341;-78
2022/05/28 00:38:26;;;;;;;10.77;2.80;;;;;;;12.54;50.96;101368.34;692682;28;1275;-79
2022/05/28 00:38:46;;;;;;;8.48;2.90;;;;;;;12.55;51.28;101364.91;693420;28;1336;-78
2022/05/28 00:39:07;;;;;;;7.93;2.80;;;;;;;12.55;50.96;101367.50;691468;28;1396;-78
2022/05/28 00:39:27;;;;;;;7.32;2.83;;;;;;;12.50;51.05;101356.03;690218;28;1020;-77
2022/05/28 00:39:48;;;;;;;6.97;2.50;;;;;;;12.47;51.26;101359.44;689807;28;1317;-78
2022/05/28 00:40:13;;;;;;;6.65;2.60;;;;;;;12.50;50.95;101349.91;689223;28;1267;-78
2022/05/28 00:40:34;;;;;;;6.53;2.50;;;;;;;12.50;51.00;101358.66;688706;28;1346;-78
2022/05/28 00:40:58;;;;;;;6.15;2.40;;;;;;;12.53;50.92;101363.97;691536;28;1148;-78
2022/05/28 00:41:19;;;;;;;8.23;2.35;;;;;;;12.51;51.38;101363.03;689508;28;1568;-79
2022/05/28 00:41:39;;;;;;;8.27;2.55;;;;;;;12.51;50.81;101356.91;688502;28;1195;-77
2022/05/28 00:42:01;;;;;;;10.00;2.90;;;;;;;12.47;51.45;101355.94;687987;28;1322;-77
2022/05/28 00:42:21;;;;;;;8.52;3.05;;;;;;;12.46;51.17;101354.16;691273;28;1273;-76
2022/05/28 00:42:42;;;;;;;9.30;3.30;;;;;;;12.51;51.12;101357.81;690508;28;1325;-76
2022/05/28 00:43:05;;;;;;;9.05;3.40;;;;;;;12.57;50.96;101363.22;687920;28;1454;-76
2022/05/28 00:43:27;;;;;;;8.82;3.25;;;;;;;12.58;51.20;101370.25;684454;28;1902;-76
2022/05/28 00:43:48;;;;;;;8.25;3.03;;;;;;;12.52;50.85;101362.19;685587;28;1290;-77
2022/05/28 00:44:09;;;;;;;10.00;3.07;;;;;;;12.53;51.01;101361.34;687783;28;1703;-76
2022/05/28 00:44:30;;;;;;;10.45;3.05;;;;;;;12.54;50.68;101357.88;688491;28;1358;-77
2022/05/28 00:44:51;;;;;;;8.05;2.80;;;;;;;12.54;51.00;101357.88;690347;28;1346;-77
2022/05/28 00:45:12;;;;;;;6.53;2.63;;;;;;;12.53;51.05;101353.50;682659;28;1523;-77
2022/05/28 00:45:33;;;;;;;6.60;3.03;;;;;;;12.55;51.03;101354.41;682422;29;1536;-77
2022/05/28 00:46:06;;;;;;;6.88;3.00;;;;;;;12.57;51.20;101365.84;685145;28;1378;-78
2022/05/28 00:46:27;;;;;;;9.65;3.17;;;;;;;12.54;51.06;101363.13;684826;28;1358;-78
2022/05/28 00:46:49;;;;;;;9.90;3.10;;;;;;;12.53;51.09;101361.34;690550;28;1159;-77
2022/05/28 00:47:10;;;;;;;9.38;2.97;;;;;;;12.55;51.04;101361.41;684931;28;1632;-76
2022/05/28 00:47:31;;;;;;;8.27;3.20;;;;;;;12.54;50.95;101357.00;687722;28;1437;-78
2022/05/28 00:48:05;;;;;;;6.78;3.13;;;;;;;12.53;50.75;101361.34;686265;28;1761;-78
2022/05/28 00:48:31;;;;;;;8.00;3.10;;;;;;;12.49;50.91;101346.41;688937;28;1332;-78
2022/05/28 00:49:00;;;;;;;9.55;3.50;;;;;;;12.55;50.99;101367.50;684465;28;1279;-78
2022/05/28 00:49:28;;;;;;;9.20;3.45;;;;;;;12.50;50.97;101349.91;688837;28;1443;-79
2022/05/28 00:49:50;;;;;;;7.85;3.22;;;;;;;12.49;51.17;101362.13;683922;28;1317;-79
2022/05/28 00:50:12;;;;;;;8.02;3.20;;;;;;;12.50;51.04;101356.03;683102;28;1469;-78
2022/05/28 00:50:35;;;;;;;8.45;3.20;;;;;;;12.54;51.26;101367.50;688558;28;1977;-79
2022/05/28 00:51:01;;;;;;;9.52;3.10;;;;;;;12.48;51.33;101350.75;690943;28;1321;-78
2022/05/28 00:51:26;;;;;;;9.65;2.90;;;;;;;12.48;51.19;101355.13;690854;28;1349;-78
2022/05/28 00:51:50;;;;;;;8.20;2.75;;;;;;;12.53;51.25;101355.25;692650;28;2010;-78
2022/05/28 00:52:11;;;;;;;8.05;2.85;;;;;;;12.42;51.06;101341.84;681860;29;1374;-78
2022/05/28 00:52:33;;;;;;;7.20;2.90;;;;;;;12.50;51.24;101347.28;687769;28;1317;-78
2022/05/28 00:52:54;;;;;;;9.23;3.17;;;;;;;12.49;51.10;101354.25;689430;28;1286;-78
2022/05/28 00:53:15;;;;;;;10.33;3.20;;;;;;;12.48;50.97;101352.50;690405;28;1337;-78
2022/05/28 00:53:35;;;;;;;10.63;3.17;;;;;;;12.53;51.27;101356.13;691032;28;1416;-78
2022/05/28 00:54:00;;;;;;;8.20;2.80;;;;;;;12.46;51.11;101341.06;688696;28;1313;-78
2022/05/28 00:54:21;;;;;;;8.77;2.97;;;;;;;12.44;51.25;101346.28;688130;28;1333;-78
2022/05/28 00:54:46;;;;;;;7.93;3.03;;;;;;;12.49;51.33;101354.25;688008;28;1358;-78
2022/05/28 00:55:19;;;;;;;9.27;3.10;;;;;;;12.50;51.35;101356.03;685278;28;986;-78
2022/05/28 00:55:40;;;;;;;9.75;3.42;;;;;;;12.49;51.36;101349.03;694250;28;1162;-79
2022/05/28 00:56:04;;;;;;;7.55;3.20;;;;;;;12.64;51.28;101358.19;692487;28;1278;-78
2022/05/28 00:56:26;;;;;;;7.60;3.15;;;;;;;12.53;51.06;101344.78;689325;28;1176;-79
2022/05/28 00:56:48;;;;;;;9.98;3.10;;;;;;;12.49;51.34;101343.78;684782;28;1248;-78
2022/05/28 00:57:10;;;;;;;11.00;2.83;;;;;;;12.50;50.98;101353.41;687508;28;1423;-79
2022/05/28 00:57:31;;;;;;;9.70;2.97;;;;;;;12.54;51.08;101347.41;688324;28;1294;-78
2022/05/28 00:57:51;;;;;;;9.37;3.13;;;;;;;12.52;50.87;101346.50;689280;28;1285;-79
2022/05/28 00:58:12;;;;;;;7.97;3.10;;;;;;;12.55;51.24;101362.28;690167;28;1258;-78
2022/05/28 00:58:33;;;;;;;7.67;3.30;;;;;;;12.56;51.28;101355.31;688316;28;1313;-78
2022/05/28 00:58:54;;;;;;;8.13;3.45;;;;;;;12.57;51.03;101351.84;685080;28;1706;-78
2022/05/28 00:59:15;;;;;;;9.90;3.78;;;;;;;12.56;51.29;101350.09;684829;28;1356;-79
2022/05/28 00:59:36;;;;;;;10.05;3.50;;;;;;;12.49;51.23;101346.41;688578;28;1171;-78
2022/05/28 00:59:56;;;;;;;9.30;3.63;;;;;;;12.56;51.33;101356.22;684363;28;1366;-78
2022/05/28 01:00:20;;;;;;;7.88;3.47;;;;;;;12.58;51.03;101344.06;688588;28;1114;-78
2022/05/28 01:00:41;;;;;;;10.35;4.07;;;;;;;12.56;50.67;101344.84;690212;28;1155;-77
2022/05/28 01:01:06;;;;;;;9.35;3.70;;;;;;;12.65;51.12;101355.59;688861;28;1282;-78
2022/05/28 01:01:30;;;;;;;8.50;4.00;;;;;;;12.60;50.90;101357.19;690246;28;1670;-78
2022/05/28 01:01:58;;;;;;;9.35;4.10;;;;;;;12.54;51.11;101339.56;690323;28;1273;-79
2022/05/28 01:02:35;;;;;;;8.93;3.30;;;;;;;12.66;50.88;101352.13;687350;28;1420;-78
2022/05/28 01:03:19;;;;;;;8.20;2.75;;;;;;;12.60;50.90;101341.50;687893;28;1436;-80
2022/05/28 01:04:07;;;;;;;8.65;2.92;;;;;;;12.62;51.03;101358.13;690517;28;1912;-78
2022/05/28 01:04:38;;;;;;;10.32;3.33;;;;;;;12.55;51.04;101349.19;686997;28;1222;-78
2022/05/28 01:05:20;;;;;;;10.40;3.17;;;;;;;12.60;51.38;101344.97;692135;28;1174;-78
2022/05/28 01:05:44;;;;;;;6.10;2.90;;;;;;;12.63;51.19;101357.28;690219;28;1170;-78
2022/05/28 01:06:17;;;;;;;6.38;2.90;;;;;;;12.66;51.20;101359.97;688729;28;1398;-78
2022/05/28 01:06:59;;;;;;;8.93;2.90;;;;;;;12.69;50.89;101357.47;689626;28;1097;-78
2022/05/28 01:07:42;;;;;;;10.50;3.33;;;;;;;12.75;50.78;101362.88;689922;28;1114;-79
2022/05/28 01:08:14;;;;;;;10.20;3.35;;;;;;;12.69;50.63;101344.38;687504;28;1345;-78
2022/05/28 01:08:43;;;;;;;11.20;3.25;;;;;;;12.61;50.76;101344.13;689618;28;1302;-78
2022/05/28 01:09:10;;;;;;;12.50;3.42;;;;;;;12.60;51.10;101344.13;687614;28;1329;-77
2022/05/28 01:09:42;;;;;;;14.90;3.80;;;;;;;12.66;50.96;101351.25;687041;28;1350;-78
2022/05/28 01:10:23;;;;;;;18.23;3.47;;;;;;;12.68;50.67;101355.69;687646;28;1405;-79
2022/05/28 01:11:00;;;;;;;11.75;3.10;;;;;;;12.70;50.85;101358.34;687371;28;1128;-77
2022/05/28 01:11:33;;;;;;;11.25;3.10;;;;;;;12.77;50.64;101360.28;688483;28;2136;-78
2022/05/28 01:12:13;;;;;;;13.40;3.35;;;;;;;12.78;50.84;101361.19;691454;28;1301;-78
2022/05/28 01:13:11;;;;;;;8.60;3.00;;;;;;;12.80;50.68;101355.16;690178;28;1201;-78
2022/05/28 01:14:00;;;;;;;10.63;3.15;;;;;;;12.77;50.57;101355.03;681535;28;1362;-78
2022/05/28 01:14:36;;;;;;;10.57;2.97;;;;;;;12.77;50.58;101348.94;691158;28;1249;-78
2022/05/28 01:15:22;;;;;;;10.73;3.53;;;;;;;12.79;50.37;101352.47;690247;28;1334;-78
2022/05/28 01:15:53;;;;;;;12.65;4.00;;;;;;;12.72;50.67;101354.06;689997;28;1151;-78
2022/05/28 01:16:37;;;;;;;9.85;3.42;;;;;;;12.73;50.67;101353.19;687372;28;1875;-78
2022/05/28 01:17:06;;;;;;;8.02;3.08;;;;;;;12.67;50.67;101332.94;687515;28;1150;-78
2022/05/28 01:17:39;;;;;;;8.40;3.20;;;;;;;12.73;50.51;101348.84;684104;28;1996;-78
2022/05/28 01:18:06;;;;;;;11.02;3.35;;;;;;;12.85;50.43;101363.13;686117;28;905;-78
2022/05/28 01:18:39;;;;;;;11.80;3.38;;;;;;;12.80;50.51;101344.69;687480;28;1124;-78
2022/05/28 01:19:11;;;;;;;7.55;3.20;;;;;;;12.76;50.77;101348.03;687139;28;1206;-78
2022/05/28 01:20:00;;;;;;;8.57;3.22;;;;;;;12.75;50.34;101346.25;680690;29;1049;-78
2022/05/28 01:20:30;;;;;;;6.13;2.70;;;;;;;12.79;50.45;101353.34;689459;28;1446;-78
2022/05/28 01:20:58;;;;;;;6.55;3.10;;;;;;;12.66;50.70;101357.34;688924;28;1357;-78
2022/05/28 01:21:42;;;;;;;7.50;3.20;;;;;;;12.67;50.53;101342.53;689542;28;1057;-78
2022/05/28 01:22:13;;;;;;;10.35;3.20;;;;;;;12.67;50.83;101343.41;685467;28;1402;-79
2022/05/28 01:22:46;;;;;;;9.40;3.40;;;;;;;12.75;50.94;101355.03;685005;28;1342;-78
2022/05/28 01:23:12;;;;;;;6.25;3.13;;;;;;;12.76;50.77;101350.66;686864;28;1049;-78
2022/05/28 01:24:00;;;;;;;9.30;3.28;;;;;;;12.77;50.73;101352.44;687402;28;1977;-78
2022/05/28 01:24:45;;;;;;;8.93;3.03;;;;;;;12.67;50.69;101351.28;691050;28;1171;-78
2022/05/28 01:25:18;;;;;;;9.35;3.40;;;;;;;12.72;51.03;101351.44;687331;28;1972;-78
2022/05/28 01:25:57;;;;;;;9.73;3.30;;;;;;;12.72;50.64;101354.06;684222;28;1295;-78
2022/05/28 01:26:29;;;;;;;7.97;3.22;;;;;;;12.65;50.76;101349.47;687573;28;1410;-78
2022/05/28 01:26:57;;;;;;;9.85;3.22;;;;;;;12.71;50.60;101336.53;689646;28;1409;-78
2022/05/28 01:27:23;;;;;;;11.60;3.10;;;;;;;12.70;50.40;101337.38;690210;28;1178;-79
2022/05/28 01:27:49;;;;;;;9.45;2.90;;;;;;;12.78;50.49;101345.47;690917;28;1164;-78
2022/05/28 01:28:15;;;;;;;7.78;2.78;;;;;;;12.80;50.97;101343.78;684366;28;1509;-77
2022/05/28 01:28:43;;;;;;;8.52;3.05;;;;;;;12.70;50.65;101337.38;688728;28;2004;-78
2022/05/28 01:29:07;;;;;;;10.98;3.20;;;;;;;12.74;50.95;101350.59;684514;28;1342;-78
2022/05/28 01:29:43;;;;;;;10.70;3.33;;;;;;;12.74;50.68;101336.63;682273;28;1371;-79
2022/05/28 01:30:07;;;;;;;8.20;2.80;;;;;;;12.75;50.63;101338.41;689926;28;1294;-78
2022/05/28 01:30:28;;;;;;;10.30;3.03;;;;;;;12.69;50.96;101330.38;689083;28;1375;-78
2022/05/28 01:30:50;;;;;;;11.13;3.28;;;;;;;12.74;50.84;101334.88;690281;28;1310;-77
2022/05/28 01:31:13;;;;;;;13.25;3.67;;;;;;;12.78;50.78;101338.47;684468;28;1343;-78
2022/05/28 01:31:35;;;;;;;14.48;3.33;;;;;;;12.75;50.57;101331.44;682260;29;1446;-78
2022/05/28 01:31:57;;;;;;;14.13;3.30;;;;;;;12.72;50.78;101325.25;684940;28;1020;-80
2022/05/28 01:32:19;;;;;;;12.63;3.42;;;;;;;12.75;50.58;101325.31;688841;28;1400;-78
2022/05/28 01:32:41;;;;;;;10.18;3.65;;;;;;;12.83;50.55;101339.50;690130;28;1237;-78
2022/05/28 01:33:04;;;;;;;8.88;3.50;;;;;;;12.74;50.71;101334.03;690662;28;1233;-78
2022/05/28 01:33:26;;;;;;;8.15;3.40;;;;;;;12.77;50.79;101339.34;691706;28;1403;-78
2022/05/28 01:33:48;;;;;;;11.20;3.17;;;;;;;12.69;50.70;101320.78;690285;28;1271;-78
2022/05/28 01:34:10;;;;;;;11.85;3.10;;;;;;;12.70;50.61;101338.28;687061;28;1121;-78
2022/05/28 01:34:43;;;;;;;11.35;3.00;;;;;;;12.79;50.64;101332.41;685727;28;1418;-78
2022/05/28 01:35:08;;;;;;;7.25;3.25;;;;;;;12.83;50.60;101334.28;686229;28;1368;-78
2022/05/28 01:35:30;;;;;;;6.10;2.85;;;;;;;12.87;50.60;101338.75;684187;28;1453;-79
2022/05/28 01:35:52;;;;;;;5.60;2.55;;;;;;;12.84;50.72;101330.81;680881;28;1403;-79
2022/05/28 01:36:15;;;;;;;8.38;2.88;;;;;;;12.77;50.59;101328.84;681789;28;1355;-78
2022/05/28 01:36:37;;;;;;;10.05;2.83;;;;;;;12.76;50.59;101316.59;686943;28;1455;-78
2022/05/28 01:36:59;;;;;;;11.02;3.25;;;;;;;12.76;50.45;101316.59;681782;28;1332;-78
2022/05/28 01:37:21;;;;;;;9.00;3.25;;;;;;;12.73;50.29;101321.78;686948;28;1224;-79
2022/05/28 01:37:45;;;;;;;8.77;3.30;;;;;;;12.75;50.75;101314.84;686742;28;1386;-78
2022/05/28 01:38:09;;;;;;;10.05;3.20;;;;;;;12.75;50.81;101327.94;686105;28;1306;-78
2022/05/28 01:38:31;;;;;;;10.85;3.15;;;;;;;12.72;50.84;101340.97;685505;28;1297;-78
2022/05/28 01:38:54;;;;;;;9.75;3.00;;;;;;;12.72;50.52;101315.63;687642;28;1314;-78
2022/05/28 01:39:17;;;;;;;9.82;3.00;;;;;;;12.71;50.68;101320.81;692945;28;1317;-78
2022/05/28 01:39:42;;;;;;;8.15;2.90;;;;;;;12.70;50.65;101319.94;689717;28;1088;-79
2022/05/28 01:40:07;;;;;;;6.13;2.70;;;;;;;12.71;50.87;101323.44;689735;28;1302;-78
2022/05/28 01:40:28;;;;;;;7.60;2.90;;;;;;;12.68;50.87;101319.03;687312;28;1390;-79
2022/05/28 01:40:50;;;;;;;8.70;2.92;;;;;;;12.67;50.97;101318.97;687516;28;1294;-79
2022/05/28 01:41:13;;;;;;;8.98;3.00;;;;;;;12.70;50.82;101326.91;686609;28;1972;-78
2022/05/28 01:41:36;;;;;;;9.00;2.90;;;;;;;12.74;50.80;101324.41;686423;28;1463;-78
2022/05/28 01:41:57;;;;;;;9.43;3.20;;;;;;;12.72;50.69;101325.25;690308;28;1171;-78
2022/05/28 01:42:18;;;;;;;8.55;3.00;;;;;;;12.69;50.87;101323.41;687701;28;1258;-78
2022/05/28 01:42:44;;;;;;;11.02;3.33;;;;;;;12.68;50.95;101323.38;691178;28;1305;-78
2022/05/28 01:43:08;;;;;;;10.75;3.20;;;;;;;12.64;50.98;101319.78;690264;28;1484;-78
2022/05/28 01:43:33;;;;;;;11.95;3.13;;;;;;;12.63;51.21;101314.47;694597;28;1942;-78
2022/05/28 01:43:54;;;;;;;9.90;2.88;;;;;;;12.71;50.88;101321.72;692504;28;1872;-78
2022/05/28 01:44:16;;;;;;;10.70;3.35;;;;;;;12.71;50.55;101333.91;687394;28;1374;-78
2022/05/28 01:44:40;;;;;;;8.02;3.20;;;;;;;12.72;50.93;101325.25;685066;28;1200;-78
2022/05/28 01:45:01;;;;;;;7.40;2.95;;;;;;;12.64;51.20;101313.66;689847;28;1307;-78
2022/05/28 01:45:26;;;;;;;7.45;2.95;;;;;;;12.58;51.34;101306.50;690266;28;1285;-78
2022/05/28 01:45:48;;;;;;;9.15;3.10;;;;;;;12.71;51.05;101312.97;684919;28;1235;-78
2022/05/28 01:46:11;;;;;;;10.60;3.22;;;;;;;12.69;50.78;101317.28;687921;28;1231;-78
2022/05/28 01:46:33;;;;;;;9.80;3.55;;;;;;;12.72;50.96;101317.38;682325;28;1344;-78
2022/05/28 01:46:55;;;;;;;12.00;3.83;;;;;;;12.70;51.01;101311.19;690156;28;1325;-78
2022/05/28 01:47:17;;;;;;;11.40;3.70;;;;;;;12.72;50.80;101314.75;692577;28;1313;-78
2022/05/28 01:47:38;;;;;;;10.18;3.35;;;;;;;12.72;50.72;101317.38;692746;28;1313;-78
2022/05/28 01:48:03;;;;;;;8.88;3.50;;;;;;;12.69;50.81;101304.19;690289;28;1222;-79
2022/05/28 01:48:25;;;;;;;8.73;3.65;;;;;;;12.77;50.84;101315.75;684396;28;1916;-78
2022/05/28 01:48:49;;;;;;;6.82;3.40;;;;;;;12.76;51.14;101311.38;684739;28;1278;-78
2022/05/28 01:49:13;;;;;;;6.35;3.17;;;;;;;12.65;51.10;101308.44;684469;28;1417;-77
2022/05/28 01:49:35;;;;;;;8.43;3.47;;;;;;;12.66;50.94;101311.97;685682;28;1202;-78
2022/05/28 01:49:59;;;;;;;10.55;3.70;;;;;;;12.69;50.91;101304.19;691915;28;1329;-78
2022/05/28 01:50:23;;;;;;;11.55;3.70;;;;;;;12.75;50.93;101309.59;692040;28;1166;-78
2022/05/28 01:50:47;;;;;;;10.35;3.35;;;;;;;12.66;50.82;101307.59;687536;28;1600;-78
2022/05/28 01:51:10;;;;;;;12.38;3.67;;;;;;;12.70;51.10;101309.47;687630;28;1540;-78
2022/05/28 01:51:36;;;;;;;12.43;3.78;;;;;;;12.60;51.05;101303.09;684469;28;1447;-79
2022/05/28 01:52:01;;;;;;;10.77;3.50;;;;;;;12.64;51.09;101313.66;685699;28;1358;-78
2022/05/28 01:52:22;;;;;;;9.98;3.17;;;;;;;12.64;51.15;101316.28;686340;28;1180;-78
2022/05/28 01:52:44;;;;;;;10.85;3.63;;;;;;;12.56;51.56;101308.19;687651;28;1171;-78
2022/05/28 01:53:07;;;;;;;9.90;3.60;;;;;;;12.61;50.94;101304.00;686653;28;1302;-78
2022/05/28 01:54:13;;;;;;;8.90;3.33;;;;;;;12.67;51.06;101309.38;690434;28;1100;-78
2022/05/28 01:54:39;;;;;;;9.15;3.20;;;;;;;12.57;51.40;101297.78;688146;28;1068;-78
2022/05/28 01:55:02;;;;;;;8.93;3.30;;;;;;;12.56;51.32;101297.72;686872;28;1438;-80
2022/05/28 01:55:25;;;;;;;12.13;3.78;;;;;;;12.61;51.28;101304.84;687260;28;1381;-78
2022/05/28 01:55:46;;;;;;;13.00;4.20;;;;;;;12.59;51.27;101311.78;683242;28;1323;-78
2022/05/28 01:56:08;;;;;;;10.48;4.03;;;;;;;12.68;51.00;101305.94;686455;28;1926;-78
2022/05/28 01:56:29;;;;;;;12.25;4.30;;;;;;;12.69;50.92;101302.47;687475;28;1275;-78
2022/05/28 01:56:52;;;;;;;11.68;4.10;;;;;;;12.78;51.14;101309.66;687620;28;1278;-78